createdAt,value
2016-04-22T00:02:01.025Z,1013.27
2016-04-22T00:05:11.980Z,1013.41
2016-04-22T00:08:24.850Z,1013.41
2016-04-22T00:11:36.749Z,1013.25
2016-04-22T00:14:48.961Z,1013.23
2016-04-22T00:18:01.015Z,1013.13
2016-04-22T00:21:12.977Z,1013.09
2016-04-22T00:24:24.878Z,1013.17
2016-04-22T00:27:36.652Z,1013.11
2016-04-22T00:30:48.582Z,1013.06
2016-04-22T00:34:00.496Z,1012.92
2016-04-22T00:37:12.333Z,1012.94
2016-04-22T00:40:24.282Z,1012.96
2016-04-22T00:43:35.945Z,1013.04
2016-04-22T00:46:47.766Z,1012.96
2016-04-22T00:50:00.367Z,1012.96
2016-04-22T00:53:03.236Z,1012.96
2016-04-22T00:56:15.134Z,1012.94
2016-04-22T00:59:27.051Z,1012.96
2016-04-22T01:02:38.996Z,1012.92
2016-04-22T01:05:54.864Z,1012.9
2016-04-22T01:09:01.685Z,1012.94
2016-04-22T01:12:04.583Z,1012.94
2016-04-22T01:15:16.357Z,1012.84
2016-04-22T01:18:28.259Z,1012.82
2016-04-22T01:21:40.267Z,1012.86
2016-04-22T01:24:55.947Z,1012.92
2016-04-22T01:27:59.142Z,1013
2016-04-22T01:31:10.759Z,1012.9
2016-04-22T01:34:22.630Z,1012.9
2016-04-22T01:37:34.513Z,1012.9
2016-04-22T01:40:43.474Z,1012.9
2016-04-22T01:43:59.107Z,1012.94
2016-04-22T01:47:01.927Z,1012.92
2016-04-22T01:50:13.607Z,1012.98
2016-04-22T01:53:25.196Z,1013.11
2016-04-22T01:56:36.845Z,1013.06
2016-04-22T01:59:48.306Z,1013.15
2016-04-22T02:02:59.767Z,1013.04
2016-04-22T02:06:09.463Z,1013
2016-04-22T02:09:21.112Z,1012.96
2016-04-22T02:12:32.919Z,1013
2016-04-22T02:15:44.662Z,1013.02
2016-04-22T02:19:00.451Z,1012.98
2016-04-22T02:22:03.069Z,1012.98
2016-04-22T02:25:14.858Z,1013.07
2016-04-22T02:28:26.572Z,1013
2016-04-22T02:31:37.689Z,1012.98
2016-04-22T02:34:49.135Z,1013.07
2016-04-22T02:38:01.143Z,1013.02
2016-04-22T02:41:09.791Z,1013
2016-04-22T02:44:21.503Z,1012.94
2016-04-22T02:47:33.420Z,1012.9
2016-04-22T02:50:45.099Z,1012.84
2016-04-22T02:54:00.951Z,1012.86
2016-04-22T02:57:04.023Z,1012.82
2016-04-22T03:00:15.781Z,1012.88
2016-04-22T03:03:26.947Z,1012.94
2016-04-22T03:06:38.299Z,1012.88
2016-04-22T03:09:54.025Z,1012.96
2016-04-22T03:13:00.878Z,1012.96
2016-04-22T03:16:03.761Z,1012.94
2016-04-22T03:19:15.566Z,1013.09
2016-04-22T03:22:27.373Z,1012.96
2016-04-22T03:25:37.804Z,1012.8
2016-04-22T03:28:53.734Z,1012.98
2016-04-22T03:32:00.617Z,1013
2016-04-22T03:35:03.561Z,1012.76
2016-04-22T03:38:14.413Z,1013.02
2016-04-22T03:41:27.300Z,1012.92
2016-04-22T03:44:39.011Z,1012.92
2016-04-22T03:47:54.753Z,1012.98
2016-04-22T03:51:01.698Z,1013.06
2016-04-22T03:54:04.519Z,1012.98
2016-04-22T03:57:16.840Z,1013.07
2016-04-22T04:00:28.835Z,1013.04
2016-04-22T04:03:40.733Z,1012.98
2016-04-22T04:06:56.522Z,1013.06
2016-04-22T04:10:03.187Z,1013.09
2016-04-22T04:13:05.930Z,1012.98
2016-04-22T04:16:17.313Z,1013.04
2016-04-22T04:19:28.963Z,1013.15
2016-04-22T04:22:38.065Z,1013.04
2016-04-22T04:25:53.893Z,1013.02
2016-04-22T04:29:00.826Z,1013.27
2016-04-22T04:32:03.815Z,1013.27
2016-04-22T04:35:15.110Z,1013.29
2016-04-22T04:38:26.761Z,1013.31
2016-04-22T04:41:38.650Z,1013.27
2016-04-22T04:44:54.550Z,1013.31
2016-04-22T04:48:01.669Z,1013.23
2016-04-22T04:51:04.554Z,1013.37
2016-04-22T04:54:16.031Z,1013.23
2016-04-22T04:57:27.776Z,1013.41
2016-04-22T05:00:39.737Z,1013.37
2016-04-22T05:03:55.526Z,1013.23
2016-04-22T05:07:02.441Z,1013.31
2016-04-22T05:10:05.387Z,1013.47
2016-04-22T05:13:17.145Z,1013.45
2016-04-22T05:16:28.843Z,1013.43
2016-04-22T05:19:40.868Z,1013.41
2016-04-22T05:22:56.767Z,1013.55
2016-04-22T05:25:59.789Z,1013.59
2016-04-22T05:29:11.767Z,1013.59
2016-04-22T05:32:23.791Z,1013.51
2016-04-22T05:35:35.941Z,1013.55
2016-04-22T05:38:48.122Z,1013.47
2016-04-22T05:41:59.974Z,1013.47
2016-04-22T05:45:12.044Z,1013.33
2016-04-22T05:48:24.521Z,1013.45
2016-04-22T05:51:35.406Z,1013.37
2016-04-22T05:54:47.852Z,1013.39
2016-04-22T05:58:00.375Z,1013.39
2016-04-22T06:01:13.134Z,1013.39
2016-04-22T06:04:25.564Z,1013.23
2016-04-22T06:07:37.778Z,1013.15
2016-04-22T06:10:46.613Z,1013.13
2016-04-22T06:14:02.981Z,1013.21
2016-04-22T06:17:07.192Z,1012.98
2016-04-22T06:20:20.044Z,1013.04
2016-04-22T06:23:31.570Z,1013.06
2016-04-22T06:26:45.298Z,1012.86
2016-04-22T06:30:02.508Z,1013.06
2016-04-22T06:33:06.548Z,1012.9
2016-04-22T06:36:19.369Z,1013.04
2016-04-22T06:39:31.676Z,1012.86
2016-04-22T06:42:43.293Z,1013.04
2016-04-22T06:46:01.458Z,1012.82
2016-04-22T06:49:05.591Z,1012.92
2016-04-22T06:52:19.052Z,1012.92
2016-04-22T06:55:32.922Z,1012.8
2016-04-22T06:58:46.587Z,1012.78
2016-04-22T07:02:00.157Z,1012.64
2016-04-22T07:05:13.900Z,1012.64
2016-04-22T07:08:27.377Z,1012.7
2016-04-22T07:11:40.763Z,1012.56
2016-04-22T07:14:57.911Z,1012.58
2016-04-22T07:18:02.576Z,1012.26
2016-04-22T07:21:16.162Z,1012.28
2016-04-22T07:24:29.217Z,1012.26
2016-04-22T07:27:41.805Z,1012.24
2016-04-22T07:31:00.939Z,1012.24
2016-04-22T07:34:06.414Z,1012.24
2016-04-22T07:37:20.252Z,1012.7
2016-04-22T07:40:33.853Z,1012.8
2016-04-22T07:43:45.177Z,1012.32
2016-04-22T07:47:03.310Z,1012.24
2016-04-22T07:50:08.021Z,1012.08
2016-04-22T07:53:22.091Z,1012.78
2016-04-22T07:56:35.068Z,1012.6
2016-04-22T07:59:48.142Z,1012.06
2016-04-22T08:03:01.867Z,1012.76
2016-04-22T08:06:15.235Z,1012.66
2016-04-22T08:09:28.463Z,1012.9
2016-04-22T08:12:41.911Z,1012
2016-04-22T08:16:00.122Z,1011.72
2016-04-22T08:19:05.521Z,1012.5
2016-04-22T08:22:19.076Z,1012.3
2016-04-22T08:25:32.849Z,1011.76
2016-04-22T08:28:44.907Z,1011.72
2016-04-22T08:32:02.743Z,1011.68
2016-04-22T08:35:08.158Z,1011.39
2016-04-22T08:38:22.666Z,1011.41
2016-04-22T08:41:37.752Z,1011.17
2016-04-22T08:44:56.966Z,1011.15
2016-04-22T08:48:03.896Z,1011.05
2016-04-22T08:51:19.310Z,1011.11
2016-04-22T08:54:34.427Z,1011.07
2016-04-22T08:57:49.609Z,1011.15
2016-04-22T09:01:04.321Z,1011.09
2016-04-22T09:04:19.298Z,1010.95
2016-04-22T09:07:34.634Z,1010.99
2016-04-22T09:10:49.192Z,1012.38
2016-04-22T09:14:02.058Z,1012.48
2016-04-22T09:17:16.067Z,1010.89
2016-04-22T09:20:30.810Z,1011.05
2016-04-22T09:23:45.328Z,1011.98
2016-04-22T09:27:02.961Z,1011.84
2016-04-22T09:30:08.516Z,1011.09
2016-04-22T09:33:22.930Z,1011.09
2016-04-22T09:36:37.439Z,1011.17
2016-04-22T09:39:55.778Z,1011.17
2016-04-22T09:43:01.333Z,1010.75
2016-04-22T09:46:15.841Z,1010.75
2016-04-22T09:49:30.302Z,1011.19
2016-04-22T09:52:44.406Z,1012.3
2016-04-22T09:56:01.930Z,1011.78
2016-04-22T09:59:06.110Z,1012.28
2016-04-22T10:02:18.696Z,1012.58
2016-04-22T10:05:32.141Z,1012.76
2016-04-22T10:15:08.262Z,1012.82
2016-04-22T10:18:22.395Z,1012.7
2016-04-22T10:21:36.468Z,1012.9
2016-04-22T10:24:54.789Z,1012.76
2016-04-22T10:28:00.484Z,1012.72
2016-04-22T10:31:14.664Z,1012.74
2016-04-22T10:34:28.485Z,1012.72
2016-04-22T10:37:41.324Z,1012.72
2016-04-22T10:40:58.097Z,1012.66
2016-04-22T10:44:02.403Z,1012.64
2016-04-22T10:47:15.598Z,1012.46
2016-04-22T10:50:28.731Z,1012.5
2016-04-22T10:53:42.038Z,1012.52
2016-04-22T10:56:59.125Z,1012.46
2016-04-22T11:00:03.508Z,1012.36
2016-04-22T11:03:16.859Z,1012.46
2016-04-22T11:06:30.009Z,1012.4
2016-04-22T11:09:42.894Z,1012.4
2016-04-22T11:13:00.011Z,1012.42
2016-04-22T11:16:04.332Z,1012.4
2016-04-22T11:19:15.902Z,1012.32
2016-04-22T11:22:29.421Z,1012.28
2016-04-22T11:25:42.350Z,1012.26
2016-04-22T11:28:59.390Z,1012.2
2016-04-22T11:32:03.695Z,1012.28
2016-04-22T11:35:16.577Z,1012.3
2016-04-22T11:38:29.882Z,1012.28
2016-04-22T11:41:40.612Z,1012.36
2016-04-22T11:44:57.589Z,1012.16
2016-04-22T11:48:01.862Z,1012.3
2016-04-22T11:51:14.698Z,1012.22
2016-04-22T11:54:26.176Z,1012.16
2016-04-22T11:57:39.046Z,1012.12
2016-04-22T12:00:55.679Z,1012.22
2016-04-22T12:04:03.781Z,1012.02
2016-04-22T12:07:07.883Z,1012.06
2016-04-22T12:10:20.844Z,1012.06
2016-04-22T12:13:34.101Z,1012.06
2016-04-22T12:16:46.035Z,1012.08
2016-04-22T12:20:02.794Z,1012.04
2016-04-22T12:23:07.225Z,1011.9
2016-04-22T12:26:20.138Z,1011.94
2016-04-22T12:29:32.475Z,1011.9
2016-04-22T12:32:45.516Z,1011.94
2016-04-22T12:36:02.447Z,1011.78
2016-04-22T12:39:06.627Z,1011.82
2016-04-22T12:42:19.463Z,1011.8
2016-04-22T12:45:32.627Z,1011.78
2016-04-22T12:48:45.731Z,1011.8
2016-04-22T12:52:02.567Z,1011.63
2016-04-22T12:55:06.700Z,1011.64
2016-04-22T12:58:19.366Z,1011.59
2016-04-22T13:01:32.124Z,1011.57
2016-04-22T13:04:44.713Z,1011.45
2016-04-22T13:08:01.429Z,1011.53
2016-04-22T13:11:05.609Z,1011.43
2016-04-22T13:14:18.585Z,1011.35
2016-04-22T13:17:31.286Z,1011.27
2016-04-22T13:20:44.202Z,1011.27
2016-04-22T13:24:01.169Z,1011.39
2016-04-22T13:27:05.333Z,1011.25
2016-04-22T13:30:18.185Z,1011.23
2016-04-22T13:33:31.230Z,1011.17
2016-04-22T13:36:42.068Z,1011.13
2016-04-22T13:39:58.904Z,1011.05
2016-04-22T13:43:03.117Z,1011.05
2016-04-22T13:46:13.727Z,1010.87
2016-04-22T13:49:24.084Z,1010.95
2016-04-22T13:52:34.501Z,1010.91
2016-04-22T13:55:47.514Z,1010.75
2016-04-22T13:59:02.475Z,1010.75
2016-04-22T14:02:06.656Z,1010.65
2016-04-22T14:05:16.398Z,1010.65
2016-04-22T14:08:29.594Z,1010.71
2016-04-22T14:11:42.698Z,1010.55
2016-04-22T14:14:58.847Z,1010.51
2016-04-22T14:18:03.230Z,1010.51
2016-04-22T14:21:16.221Z,1010.59
2016-04-22T14:24:29.418Z,1010.55
2016-04-22T14:27:42.418Z,1010.43
2016-04-22T14:30:59.317Z,1010.35
2016-04-22T14:34:03.747Z,1010.41
2016-04-22T14:37:16.786Z,1010.35
2016-04-22T14:40:29.856Z,1010.35
2016-04-22T14:43:43.227Z,1010.37
2016-04-22T14:47:00.265Z,1010.17
2016-04-22T14:50:04.618Z,1010.21
2016-04-22T14:53:17.641Z,1010.21
2016-04-22T14:56:29.884Z,1010.15
2016-04-22T14:59:44.192Z,1010.17
2016-04-22T15:03:01.231Z,1010.01
2016-04-22T15:06:05.520Z,1010.05
2016-04-22T15:09:18.684Z,1009.97
2016-04-22T15:12:31.786Z,1009.91
2016-04-22T15:15:45.046Z,1009.82
2016-04-22T15:19:02.196Z,1009.85
2016-04-22T15:22:06.610Z,1009.91
2016-04-22T15:25:19.774Z,1009.8
2016-04-22T15:28:32.939Z,1009.84
2016-04-22T15:31:45.824Z,1009.68
2016-04-22T15:35:02.864Z,1009.76
2016-04-22T15:38:07.153Z,1009.68
2016-04-22T15:41:20.067Z,1009.66
2016-04-22T15:44:33.263Z,1009.85
2016-04-22T15:47:45.835Z,1009.62
2016-04-22T15:51:02.662Z,1009.58
2016-04-22T15:54:06.842Z,1009.58
2016-04-22T15:57:19.834Z,1009.62
2016-04-22T16:00:32.999Z,1009.6
2016-04-22T16:03:46.087Z,1009.68
2016-04-22T16:07:03.033Z,1009.58
2016-04-22T16:10:07.197Z,1009.52
2016-04-22T16:13:16.893Z,1009.48
2016-04-22T16:16:29.885Z,1009.56
2016-04-22T16:19:42.987Z,1009.44
2016-04-22T16:23:00.013Z,1009.54
2016-04-22T16:26:04.287Z,1009.46
2016-04-22T16:29:17.437Z,1009.44
2016-04-22T16:32:30.459Z,1009.36
2016-04-22T16:35:43.624Z,1009.38
2016-04-22T16:39:00.759Z,1009.3
2016-04-22T16:42:04.955Z,1009.28
2016-04-22T16:45:17.729Z,1009.38
2016-04-22T16:48:27.596Z,1009.28
2016-04-22T16:51:40.526Z,1009.26
2016-04-22T16:54:57.240Z,1009.26
2016-04-22T16:58:01.435Z,1009.24
2016-04-22T17:01:13.147Z,1009.16
2016-04-22T17:04:26.420Z,1009.14
2016-04-22T17:07:39.429Z,1009.2
2016-04-22T17:10:56.143Z,1009.1
2016-04-22T17:14:04.292Z,1009.14
2016-04-22T17:17:08.456Z,1009.2
2016-04-22T17:20:18.416Z,1009.08
2016-04-22T17:23:31.335Z,1009.1
2016-04-22T17:26:44.219Z,1009.24
2016-04-22T17:30:01.089Z,1009.12
2016-04-22T17:33:05.223Z,1009.08
2016-04-22T17:36:17.995Z,1009.06
2016-04-22T17:39:30.958Z,1009.14
2016-04-22T17:42:43.934Z,1009.06
2016-04-22T17:46:00.366Z,1009
2016-04-22T17:49:04.452Z,1009
2016-04-22T17:52:17.367Z,1009
2016-04-22T17:55:30.062Z,1009
2016-04-22T17:58:42.759Z,1009.1
2016-04-22T18:01:56.270Z,1009.04
2016-04-22T18:05:04.120Z,1009.08
2016-04-22T18:08:08.067Z,1008.98
2016-04-22T18:11:20.980Z,1008.94
2016-04-22T18:14:33.707Z,1008.96
2016-04-22T18:17:46.481Z,1009.04
2016-04-22T18:21:03.320Z,1009
2016-04-22T18:24:07.282Z,1008.94
2016-04-22T18:27:20.243Z,1008.84
2016-04-22T18:30:30.532Z,1008.9
2016-04-22T18:33:42.478Z,1008.86
2016-04-22T18:36:57.691Z,1008.98
2016-04-22T18:40:01.621Z,1008.96
2016-04-22T18:43:14.176Z,1008.98
2016-04-22T18:46:26.543Z,1008.98
2016-04-22T18:49:39.285Z,1008.96
2016-04-22T18:52:55.827Z,1008.98
2016-04-22T18:56:03.585Z,1008.96
2016-04-22T18:59:07.313Z,1008.9
2016-04-22T19:02:19.920Z,1008.9
2016-04-22T19:05:32.397Z,1008.9
2016-04-22T19:08:45.092Z,1008.82
2016-04-22T19:12:01.572Z,1008.98
2016-04-22T19:15:05.299Z,1008.92
2016-04-22T19:18:17.697Z,1008.96
2016-04-22T19:21:30.190Z,1008.94
2016-04-22T19:24:42.854Z,1008.86
2016-04-22T19:27:59.379Z,1008.88
2016-04-22T19:31:03.075Z,1008.9
2016-04-22T19:34:15.443Z,1008.82
2016-04-22T19:37:28.014Z,1008.9
2016-04-22T19:40:40.631Z,1008.82
2016-04-22T19:43:56.939Z,1008.84
2016-04-22T19:47:04.775Z,1008.74
2016-04-22T19:50:08.455Z,1008.76
2016-04-22T19:53:21.009Z,1008.74
2016-04-22T19:56:33.502Z,1008.78
2016-04-22T19:59:45.917Z,1008.78
2016-04-22T20:03:02.709Z,1008.68
2016-04-22T20:06:06.325Z,1008.72
2016-04-22T20:09:19.006Z,1008.7
2016-04-22T20:12:29.186Z,1008.56
2016-04-22T20:15:41.631Z,1008.58
2016-04-22T20:18:58.174Z,1008.72
2016-04-22T20:22:01.854Z,1008.54
2016-04-22T20:25:14.346Z,1008.56
2016-04-22T20:28:26.651Z,1008.5
2016-04-22T20:31:39.159Z,1008.46
2016-04-22T20:34:51.682Z,1008.43
2016-04-22T20:38:04.350Z,1008.46
2016-04-22T20:41:13.545Z,1008.36
2016-04-22T20:44:26.116Z,1008.38
2016-04-22T20:47:38.655Z,1008.3
2016-04-22T20:50:50.929Z,1008.38
2016-04-22T20:54:03.283Z,1008.28
2016-04-22T20:57:15.588Z,1008.36
2016-04-22T21:00:27.487Z,1008.26
2016-04-22T21:03:40.120Z,1008.18
2016-04-22T21:06:56.162Z,1008.36
2016-04-22T21:10:03.576Z,1008.3
2016-04-22T21:13:07.116Z,1008.36
2016-04-22T21:16:19.295Z,1008.22
2016-04-22T21:19:31.726Z,1008.28
2016-04-22T21:22:44.171Z,1008.2
2016-04-22T21:26:00.010Z,1008.16
2016-04-22T21:29:03.627Z,1008.14
2016-04-22T21:32:16.026Z,1008.04
2016-04-22T21:35:28.367Z,1008.18
2016-04-22T21:38:40.542Z,1008.12
2016-04-22T21:41:52.250Z,1008.04
2016-04-22T21:45:04.620Z,1008.14
2016-04-22T21:48:17.081Z,1008.08
2016-04-22T21:51:29.552Z,1008.1
2016-04-22T21:54:38.841Z,1008.12
2016-04-22T21:57:51.068Z,1008
2016-04-22T22:01:03.141Z,1008.04
2016-04-22T22:04:15.571Z,1008.02
2016-04-22T22:07:27.502Z,1008.08
2016-04-22T22:10:39.509Z,1008
2016-04-22T22:13:49.251Z,1008.02
2016-04-22T22:17:05.638Z,1008.06
2016-04-22T22:20:08.942Z,1007.95
2016-04-22T22:23:21.109Z,1008.06
2016-04-22T22:26:33.400Z,1008
2016-04-22T22:29:45.250Z,1007.93
2016-04-22T22:33:01.449Z,1008
2016-04-22T22:36:05.051Z,1007.98
2016-04-22T22:39:17.205Z,1007.98
2016-04-22T22:42:26.405Z,1007.97
2016-04-22T22:45:34.730Z,1007.97
2016-04-22T22:48:47.034Z,1007.83
2016-04-22T22:52:03.228Z,1007.89
2016-04-22T22:55:06.508Z,1007.91
2016-04-22T22:58:18.516Z,1007.85
2016-04-22T23:01:30.448Z,1007.81
2016-04-22T23:04:42.863Z,1007.77
2016-04-22T23:07:59.093Z,1007.87
2016-04-22T23:11:06.459Z,1007.87
2016-04-22T23:14:09.734Z,1007.83
2016-04-22T23:17:23.273Z,1007.91
2016-04-22T23:20:34.047Z,1007.93
2016-04-22T23:23:46.023Z,1007.75
2016-04-22T23:27:02.113Z,1007.83
2016-04-22T23:30:05.339Z,1007.87
2016-04-22T23:33:17.644Z,1007.77
2016-04-22T23:36:30.027Z,1007.73
2016-04-22T23:39:39.316Z,1007.73
2016-04-22T23:42:50.403Z,1007.77
2016-04-22T23:46:07.257Z,1007.85
2016-04-22T23:49:10.328Z,1007.81
2016-04-22T23:52:22.320Z,1007.79
2016-04-22T23:55:34.391Z,1007.71
2016-04-22T23:58:46.367Z,1007.67
